Time;durP1;ratioP1;P1;durP2;ratioP2;P2;SDS_P1;SDS_P2;PMS_P1;PMS_P2;Temp;Humidity;BMP_temperature;BMP_pressure;BME280_temperature;BME280_humidity;BME280_pressure;Samples;Min_cycle;Max_cycle;Signal;HPM_P1;HPM_P2
2023/01/27 00:00:05;;;;;;;12.73;1.45;;;6.40;99.90;;;;;;5027758;28;20084;-44
2023/01/27 00:02:30;;;;;;;7.85;1.50;;;6.30;99.90;;;;;;5025349;28;20478;-44
2023/01/27 00:04:56;;;;;;;7.10;1.20;;;6.30;99.90;;;;;;5031244;28;20025;-43
2023/01/27 00:07:22;;;;;;;3.55;1.17;;;6.30;99.90;;;;;;5033135;28;20441;-44
2023/01/27 00:09:48;;;;;;;8.32;1.42;;;6.30;99.90;;;;;;5032962;28;20452;-44
2023/01/27 00:15:10;;;;;;;4.38;1.23;;;6.30;99.90;;;;;;5030696;28;20103;-44
2023/01/27 00:17:36;;;;;;;8.70;1.20;;;6.30;99.90;;;;;;5032541;28;20036;-42
2023/01/27 00:20:03;;;;;;;4.72;0.88;;;6.20;99.90;;;;;;5029723;28;20470;-45
2023/01/27 00:25:13;;;;;;;4.25;1.23;;;6.20;99.90;;;;;;5016906;28;20079;-48
2023/01/27 00:27:38;;;;;;;8.48;1.33;;;6.20;99.90;;;;;;5032246;28;20030;-43
2023/01/27 00:30:05;;;;;;;9.38;1.52;;;6.20;99.90;;;;;;5017231;28;20029;-43
2023/01/27 00:35:16;;;;;;;12.30;1.42;;;6.30;99.90;;;;;;5029832;28;20080;-46
2023/01/27 00:37:45;;;;;;;9.13;1.40;;;6.30;99.90;;;;;;5036048;28;20489;-44
2023/01/27 00:40:15;;;;;;;3.42;1.23;;;6.40;99.90;;;;;;5037122;28;20462;-45
2023/01/27 00:42:41;;;;;;;6.93;1.00;;;6.40;99.90;;;;;;5028058;28;20025;-44
2023/01/27 00:47:51;;;;;;;4.70;1.25;;;6.30;99.90;;;;;;5035663;28;20045;-46
2023/01/27 00:50:18;;;;;;;6.88;2.15;;;6.30;99.90;;;;;;5041672;28;20024;-45
2023/01/27 00:52:44;;;;;;;4.07;1.40;;;6.30;99.90;;;;;;5030582;28;20079;-40
2023/01/27 00:55:11;;;;;;;3.05;1.02;;;6.30;99.90;;;;;;5033430;28;20081;-43
2023/01/27 00:57:37;;;;;;;15.02;2.38;;;6.30;99.90;;;;;;5028871;28;20440;-43
2023/01/27 01:00:21;;;;;;;6.85;1.42;;;6.20;99.90;;;;;;5023574;28;20024;-41
2023/01/27 01:02:47;;;;;;;3.45;1.30;;;6.10;99.90;;;;;;5028349;28;20393;-41
2023/01/27 01:05:12;;;;;;;3.72;1.27;;;6.10;99.90;;;;;;5023474;28;20033;-40
2023/01/27 01:07:38;;;;;;;3.55;1.38;;;6.10;99.90;;;;;;5029055;28;20407;-40
2023/01/27 01:10:04;;;;;;;2.28;1.30;;;6.20;99.90;;;;;;5029589;28;20474;-37
2023/01/27 01:12:30;;;;;;;5.65;2.45;;;6.20;99.90;;;;;;5031713;28;20032;-38
2023/01/27 01:14:55;;;;;;;10.73;2.83;;;6.30;99.90;;;;;;5027296;28;20029;-40
2023/01/27 01:17:21;;;;;;;7.45;1.98;;;6.20;99.90;;;;;;5031704;28;20477;-41
2023/01/27 01:19:47;;;;;;;10.65;1.70;;;6.10;99.90;;;;;;5031752;28;20440;-39
2023/01/27 01:22:12;;;;;;;4.70;1.88;;;6.00;99.90;;;;;;5031209;28;20067;-38
2023/01/27 01:24:38;;;;;;;4.93;1.85;;;6.00;99.90;;;;;;5019194;28;20029;-40
2023/01/27 01:27:03;;;;;;;4.43;1.67;;;5.90;99.90;;;;;;5033029;28;20512;-43
2023/01/27 01:29:29;;;;;;;4.55;2.00;;;6.00;99.90;;;;;;5034298;28;20048;-43
2023/01/27 01:31:54;;;;;;;9.00;2.10;;;6.10;99.90;;;;;;5034703;28;20389;-42
2023/01/27 01:34:20;;;;;;;11.27;1.92;;;6.00;99.90;;;;;;5035841;28;20496;-43
2023/01/27 01:36:46;;;;;;;5.63;2.17;;;6.00;99.90;;;;;;5027904;28;20080;-42
2023/01/27 01:39:11;;;;;;;4.18;2.40;;;5.90;99.90;;;;;;5035772;28;20433;-37
2023/01/27 01:41:37;;;;;;;6.35;3.25;;;5.90;99.90;;;;;;5027500;28;20034;-41
2023/01/27 01:44:42;;;;;;;5.15;2.60;;;5.90;99.90;;;;;;5033008;28;20371;-38
2023/01/27 01:47:18;;;;;;;7.38;2.80;;;5.90;99.90;;;;;;5032447;28;20367;-43
2023/01/27 01:49:46;;;;;;;7.05;3.05;;;5.90;99.90;;;;;;5020929;28;20076;-45
2023/01/27 01:52:20;;;;;;;4.88;2.33;;;5.90;99.90;;;;;;5015818;28;20040;-35
2023/01/27 01:55:05;;;;;;;5.47;2.50;;;5.90;99.90;;;;;;5028001;28;20057;-48
2023/01/27 01:57:36;;;;;;;9.95;2.97;;;5.90;99.90;;;;;;5015436;28;20030;-43
2023/01/27 02:00:08;;;;;;;7.93;2.92;;;6.00;99.90;;;;;;5019076;28;20471;-37
2023/01/27 02:02:34;;;;;;;5.20;2.50;;;6.00;99.90;;;;;;5016418;28;20028;-39
2023/01/27 02:05:06;;;;;;;5.05;2.58;;;6.00;99.90;;;;;;5030993;28;20030;-38
2023/01/27 02:07:59;;;;;;;14.52;2.97;;;6.00;99.90;;;;;;5035247;28;20112;-37
2023/01/27 02:10:25;;;;;;;7.68;2.67;;;6.00;99.90;;;;;;5033509;28;20507;-37
2023/01/27 02:12:51;;;;;;;2.65;2.22;;;6.00;99.90;;;;;;5016295;28;20026;-40
2023/01/27 02:15:17;;;;;;;5.18;2.65;;;5.90;99.90;;;;;;5033314;28;20095;-38
2023/01/27 02:17:43;;;;;;;7.30;3.05;;;5.90;99.90;;;;;;5035119;28;20026;-39
2023/01/27 02:20:22;;;;;;;5.18;2.70;;;5.90;99.90;;;;;;5035002;28;20056;-40
2023/01/27 02:22:51;;;;;;;7.93;2.63;;;5.80;99.90;;;;;;5024065;28;20025;-37
2023/01/27 02:25:28;;;;;;;11.90;2.70;;;5.80;99.90;;;;;;5014681;28;20509;-39
2023/01/27 02:27:53;;;;;;;10.32;2.92;;;5.80;99.90;;;;;;5015313;28;20478;-36
2023/01/27 02:30:19;;;;;;;8.55;2.97;;;5.90;99.90;;;;;;5019935;28;20021;-39
2023/01/27 02:32:45;;;;;;;5.43;2.85;;;5.80;99.90;;;;;;5032977;28;20032;-42
2023/01/27 02:35:15;;;;;;;12.40;3.20;;;5.80;99.90;;;;;;5032100;28;20037;-40
2023/01/27 02:37:41;;;;;;;7.13;2.65;;;5.80;99.90;;;;;;5034702;28;20112;-39
2023/01/27 02:40:09;;;;;;;6.45;2.88;;;5.80;99.90;;;;;;5022862;28;20030;-36
2023/01/27 02:42:35;;;;;;;7.20;2.80;;;5.80;99.90;;;;;;5032671;28;20026;-37
2023/01/27 02:45:00;;;;;;;9.93;3.20;;;5.80;99.90;;;;;;5025471;28;20018;-38
2023/01/27 02:47:26;;;;;;;16.85;3.65;;;5.80;99.90;;;;;;5034472;28;20139;-40
2023/01/27 02:49:53;;;;;;;3.95;2.85;;;5.80;99.90;;;;;;5034423;28;20547;-41
2023/01/27 02:52:19;;;;;;;11.45;3.28;;;5.70;99.90;;;;;;5032976;28;20505;-36
2023/01/27 02:54:45;;;;;;;8.60;3.92;;;5.70;99.90;;;;;;5023056;28;20163;-37
2023/01/27 02:57:10;;;;;;;15.05;4.30;;;5.60;99.90;;;;;;5034206;28;20530;-38
2023/01/27 02:59:36;;;;;;;16.70;4.80;;;5.50;99.90;;;;;;5032843;28;20402;-37
2023/01/27 03:02:02;;;;;;;11.18;4.22;;;5.50;99.90;;;;;;5020267;28;20029;-39
2023/01/27 03:04:28;;;;;;;7.15;4.60;;;5.50;99.90;;;;;;5014399;28;20021;-37
2023/01/27 03:06:54;;;;;;;7.43;3.97;;;5.50;99.90;;;;;;5014412;28;20508;-38
2023/01/27 03:09:20;;;;;;;13.32;4.45;;;5.50;99.90;;;;;;5028604;28;20033;-40
2023/01/27 03:19:58;;;;;;;8.27;4.47;;;5.40;99.90;;;;;;5022783;28;20067;-36
2023/01/27 03:22:25;;;;;;;10.05;4.75;;;5.30;99.90;;;;;;5031970;28;20478;-39
2023/01/27 03:24:50;;;;;;;10.35;4.82;;;5.30;99.90;;;;;;5030198;28;20474;-43
2023/01/27 03:27:16;;;;;;;12.52;5.57;;;5.30;99.90;;;;;;5032558;28;20116;-42
2023/01/27 03:29:54;;;;;;;10.52;4.60;;;5.30;99.90;;;;;;5033753;28;20026;-43
2023/01/27 03:32:24;;;;;;;12.77;5.20;;;5.30;99.90;;;;;;5033774;28;20029;-43
2023/01/27 03:34:49;;;;;;;11.43;5.72;;;5.30;99.90;;;;;;5014791;28;20425;-42
2023/01/27 03:48:12;;;;;;;9.52;5.30;;;5.20;99.90;;;;;;5026265;28;20125;-42
2023/01/27 03:50:41;;;;;;;14.88;5.15;;;5.10;99.90;;;;;;5026652;28;20386;-45
2023/01/27 03:53:08;;;;;;;13.13;4.93;;;5.20;99.90;;;;;;5013949;28;20029;-40
2023/01/27 03:55:35;;;;;;;11.68;4.75;;;5.20;99.90;;;;;;5017093;28;20061;-40
2023/01/27 03:58:17;;;;;;;13.47;5.10;;;5.20;99.90;;;;;;5024627;28;20045;-39
2023/01/27 04:00:43;;;;;;;9.50;4.82;;;5.30;99.90;;;;;;5033433;28;20485;-37
2023/01/27 04:08:40;;;;;;;9.13;3.92;;;5.10;99.90;;;;;;5031625;28;20040;-40
2023/01/27 04:13:50;;;;;;;7.22;3.63;;;5.00;99.90;;;;;;5033033;28;20031;-43
2023/01/27 04:16:16;;;;;;;7.72;3.03;;;5.10;99.90;;;;;;5027344;28;20473;-44
2023/01/27 04:18:42;;;;;;;7.03;3.55;;;5.10;99.90;;;;;;5013037;28;20065;-41
2023/01/27 04:21:08;;;;;;;7.18;3.13;;;5.10;99.90;;;;;;5013170;28;20390;-42
2023/01/27 04:23:34;;;;;;;5.32;2.88;;;5.20;99.90;;;;;;5013205;28;20072;-45
2023/01/27 04:25:59;;;;;;;4.40;2.78;;;5.10;99.90;;;;;;5014814;28;20022;-41
2023/01/27 04:28:26;;;;;;;9.02;4.00;;;5.20;99.90;;;;;;5030710;28;20433;-43
2023/01/27 04:30:52;;;;;;;3.55;2.63;;;5.20;99.90;;;;;;5032819;28;20431;-45
2023/01/27 04:33:17;;;;;;;6.57;3.00;;;5.30;99.90;;;;;;5032992;28;20017;-43
2023/01/27 04:35:44;;;;;;;4.45;3.00;;;5.20;99.90;;;;;;5024033;28;20092;-51
2023/01/27 04:38:10;;;;;;;4.93;2.60;;;5.20;99.90;;;;;;5012957;28;20075;-43
2023/01/27 04:40:36;;;;;;;6.35;2.63;;;5.30;99.90;;;;;;5012881;28;20033;-44
2023/01/27 04:43:02;;;;;;;5.35;2.55;;;5.30;99.90;;;;;;5011799;28;20014;-42
2023/01/27 04:45:27;;;;;;;1.95;1.75;;;5.30;99.90;;;;;;5017388;28;20056;-41
2023/01/27 04:47:53;;;;;;;2.85;2.28;;;5.40;99.90;;;;;;5012685;28;20118;-38
2023/01/27 04:50:18;;;;;;;3.58;2.38;;;5.30;99.90;;;;;;5023019;28;20032;-43
2023/01/27 04:52:44;;;;;;;3.53;2.22;;;5.30;99.90;;;;;;5027239;28;20022;-42
2023/01/27 04:55:10;;;;;;;3.05;2.10;;;5.30;99.90;;;;;;5025194;28;20105;-47
2023/01/27 04:57:36;;;;;;;6.13;2.67;;;5.40;99.90;;;;;;5024909;28;20034;-40
2023/01/27 05:00:04;;;;;;;4.45;2.10;;;5.50;99.90;;;;;;5032607;28;20036;-40
2023/01/27 05:02:30;;;;;;;3.05;1.85;;;5.50;99.90;;;;;;5013488;28;20483;-34
2023/01/27 05:04:56;;;;;;;3.42;1.88;;;5.50;99.90;;;;;;5024469;28;20068;-40
2023/01/27 05:07:22;;;;;;;2.15;1.85;;;5.50;99.90;;;;;;5027119;28;20478;-36
2023/01/27 05:09:48;;;;;;;2.63;1.85;;;5.50;99.90;;;;;;5014974;28;20533;-40
2023/01/27 05:12:14;;;;;;;3.92;1.45;;;5.50;99.90;;;;;;5012735;28;20029;-37
2023/01/27 05:14:40;;;;;;;3.58;1.40;;;5.50;99.90;;;;;;5022579;28;20025;-37
2023/01/27 05:17:05;;;;;;;1.88;1.55;;;5.40;99.90;;;;;;5032262;28;20022;-39
2023/01/27 05:19:31;;;;;;;1.67;1.40;;;5.40;99.90;;;;;;5030795;28;20032;-39
2023/01/27 05:21:57;;;;;;;5.60;1.90;;;5.40;99.90;;;;;;5018805;28;20057;-40
2023/01/27 05:24:22;;;;;;;2.83;1.95;;;5.40;99.90;;;;;;5026756;28;20103;-35
2023/01/27 05:26:48;;;;;;;3.40;1.90;;;5.40;99.90;;;;;;5036030;28;20017;-37
2023/01/27 05:29:13;;;;;;;1.92;1.83;;;5.40;99.90;;;;;;5027055;28;20039;-40
2023/01/27 05:31:39;;;;;;;1.60;1.50;;;5.50;99.90;;;;;;5027209;28;20018;-46
2023/01/27 05:34:05;;;;;;;2.47;2.22;;;5.50;99.90;;;;;;5034612;28;20394;-43
2023/01/27 05:36:30;;;;;;;2.00;1.90;;;5.50;99.90;;;;;;5035495;28;20461;-43
2023/01/27 05:38:58;;;;;;;2.05;1.63;;;5.50;99.90;;;;;;5029819;28;20441;-39
2023/01/27 05:41:23;;;;;;;2.13;1.90;;;5.60;99.90;;;;;;5034714;28;20509;-43
2023/01/27 05:43:54;;;;;;;5.80;2.05;;;5.60;99.90;;;;;;5035250;28;20032;-40
2023/01/27 05:46:22;;;;;;;5.57;2.22;;;5.50;99.90;;;;;;5032499;28;20470;-42
2023/01/27 05:48:50;;;;;;;5.10;1.80;;;5.50;99.90;;;;;;5029229;28;20034;-44
2023/01/27 05:51:18;;;;;;;2.95;1.70;;;5.50;99.90;;;;;;5015615;28;20044;-43
2023/01/27 05:53:44;;;;;;;2.20;1.58;;;5.50;99.90;;;;;;5033158;28;20041;-42
2023/01/27 05:56:13;;;;;;;1.60;1.50;;;5.40;99.90;;;;;;5031032;28;20041;-42
2023/01/27 05:58:39;;;;;;;3.08;1.33;;;5.40;99.90;;;;;;5033668;28;20037;-44
2023/01/27 06:01:11;;;;;;;3.10;2.70;;;5.50;99.90;;;;;;5031401;28;20442;-44
2023/01/27 06:03:38;;;;;;;1.75;1.48;;;5.50;99.90;;;;;;5034445;28;20440;-44
2023/01/27 06:06:04;;;;;;;1.95;1.35;;;5.50;99.90;;;;;;5033936;28;20504;-45
2023/01/27 06:08:30;;;;;;;2.95;1.70;;;5.60;99.90;;;;;;5031588;28;20044;-43
2023/01/27 06:10:57;;;;;;;2.45;1.58;;;5.50;99.90;;;;;;5029193;28;20026;-43
2023/01/27 06:13:23;;;;;;;1.97;1.70;;;5.50;99.90;;;;;;5033160;28;20112;-43
2023/01/27 06:15:49;;;;;;;2.50;1.70;;;5.50;99.90;;;;;;5032402;28;20831;-41
2023/01/27 06:18:17;;;;;;;5.65;1.60;;;5.50;99.90;;;;;;5027041;28;20501;-42
2023/01/27 06:20:43;;;;;;;1.75;1.50;;;5.40;99.90;;;;;;5017840;28;20550;-42
2023/01/27 06:23:10;;;;;;;0.90;0.90;;;5.50;99.90;;;;;;5031351;28;20520;-44
2023/01/27 06:25:38;;;;;;;2.30;1.70;;;5.50;99.90;;;;;;5030720;28;20516;-43
2023/01/27 06:28:05;;;;;;;2.05;1.33;;;5.50;99.90;;;;;;5034298;28;20509;-42
2023/01/27 06:30:31;;;;;;;3.20;1.52;;;5.50;99.90;;;;;;5031613;28;20485;-40
2023/01/27 06:32:57;;;;;;;1.30;1.20;;;5.50;99.90;;;;;;5034292;28;20024;-44
2023/01/27 06:35:22;;;;;;;6.00;1.10;;;5.50;99.90;;;;;;5033812;28;20025;-41
2023/01/27 06:37:50;;;;;;;5.43;1.70;;;5.50;99.90;;;;;;5033961;28;20512;-48
2023/01/27 06:40:16;;;;;;;1.67;1.45;;;5.50;99.90;;;;;;5031884;28;20211;-43
2023/01/27 06:42:43;;;;;;;3.97;1.38;;;5.40;99.90;;;;;;5016441;28;20056;-41
2023/01/27 06:45:10;;;;;;;2.42;1.05;;;5.40;99.90;;;;;;5015068;28;20429;-46
2023/01/27 06:47:36;;;;;;;1.05;0.95;;;5.40;99.90;;;;;;5022903;28;20473;-41
2023/01/27 06:50:02;;;;;;;1.35;1.20;;;5.40;99.90;;;;;;5032818;28;20035;-43
2023/01/27 06:52:27;;;;;;;1.30;1.20;;;5.40;99.90;;;;;;5014601;28;20532;-44
2023/01/27 06:54:53;;;;;;;1.67;1.08;;;5.30;99.90;;;;;;5014564;28;20556;-44
2023/01/27 06:57:18;;;;;;;3.33;0.90;;;5.40;99.90;;;;;;5014557;28;20026;-46
2023/01/27 06:59:44;;;;;;;1.10;1.00;;;5.40;99.90;;;;;;5014254;28;20038;-40
2023/01/27 07:02:12;;;;;;;2.15;1.40;;;5.40;99.90;;;;;;5032379;28;20432;-41
2023/01/27 07:04:38;;;;;;;4.20;1.27;;;5.30;99.90;;;;;;5034163;28;20025;-42
2023/01/27 07:07:04;;;;;;;1.45;1.00;;;5.30;99.90;;;;;;5021475;28;20286;-45
2023/01/27 07:09:29;;;;;;;3.85;1.73;;;5.30;99.90;;;;;;5027359;28;20029;-42
2023/01/27 07:11:55;;;;;;;1.08;0.98;;;5.30;99.90;;;;;;5023450;28;20355;-42
2023/01/27 07:14:21;;;;;;;1.23;0.93;;;5.30;99.90;;;;;;5033140;28;20033;-45
2023/01/27 07:16:46;;;;;;;1.67;1.27;;;5.30;99.90;;;;;;5032473;28;20036;-42
2023/01/27 07:19:13;;;;;;;1.70;1.05;;;5.30;99.90;;;;;;5033898;28;20056;-44
2023/01/27 07:21:38;;;;;;;3.22;1.38;;;5.20;99.90;;;;;;5028258;28;20034;-45
2023/01/27 07:24:04;;;;;;;1.77;1.38;;;5.20;99.90;;;;;;5032581;28;20032;-45
2023/01/27 07:26:30;;;;;;;1.88;1.52;;;5.10;99.90;;;;;;5027672;28;20485;-44
2023/01/27 07:28:56;;;;;;;3.33;1.40;;;5.20;99.90;;;;;;5014483;28;20041;-42
2023/01/27 07:31:22;;;;;;;2.88;1.20;;;5.20;99.90;;;;;;5030619;28;20035;-43
2023/01/27 07:33:48;;;;;;;5.10;1.45;;;5.20;99.90;;;;;;5033565;28;20034;-47
2023/01/27 07:36:13;;;;;;;1.60;1.50;;;5.20;99.90;;;;;;5032042;28;20049;-43
2023/01/27 07:38:39;;;;;;;5.22;1.63;;;5.20;99.90;;;;;;5031709;28;20037;-45
2023/01/27 07:41:06;;;;;;;2.20;1.40;;;5.20;99.90;;;;;;5028535;28;20025;-46
2023/01/27 07:43:32;;;;;;;2.78;1.10;;;5.20;99.90;;;;;;5026342;28;20022;-44
2023/01/27 07:45:58;;;;;;;2.97;1.55;;;5.10;99.90;;;;;;5021394;28;20029;-37
2023/01/27 07:48:24;;;;;;;3.28;1.10;;;5.10;99.90;;;;;;5033271;28;20034;-42
2023/01/27 07:50:50;;;;;;;1.52;1.20;;;5.10;99.90;;;;;;5023959;28;20053;-42
2023/01/27 07:53:15;;;;;;;2.70;1.25;;;5.10;99.90;;;;;;5023180;28;20037;-46
2023/01/27 07:55:41;;;;;;;1.45;1.30;;;5.20;99.90;;;;;;5025043;28;20018;-41
2023/01/27 07:58:07;;;;;;;3.45;1.60;;;5.10;99.90;;;;;;5029359;28;20112;-38
2023/01/27 08:00:33;;;;;;;1.63;1.45;;;5.00;99.90;;;;;;5021219;28;20723;-43
2023/01/27 08:03:00;;;;;;;1.98;1.27;;;5.10;99.90;;;;;;5025339;28;20025;-39
2023/01/27 08:05:27;;;;;;;2.55;1.20;;;5.00;99.90;;;;;;5020597;28;20523;-42
2023/01/27 08:07:54;;;;;;;1.75;1.17;;;5.10;99.90;;;;;;5024116;28;20466;-42
2023/01/27 08:10:21;;;;;;;4.33;1.03;;;5.10;99.90;;;;;;5013718;28;20482;-41
2023/01/27 08:12:47;;;;;;;1.38;1.27;;;5.10;99.90;;;;;;5030969;28;20279;-42
2023/01/27 08:15:13;;;;;;;4.05;1.00;;;5.20;99.90;;;;;;5033150;28;20033;-46
2023/01/27 08:17:38;;;;;;;0.95;0.90;;;5.20;99.90;;;;;;5029787;28;20030;-45
2023/01/27 08:20:05;;;;;;;3.80;1.20;;;5.20;99.90;;;;;;5032905;28;20038;-49
2023/01/27 08:22:30;;;;;;;2.22;1.13;;;5.20;99.90;;;;;;5033347;28;20466;-47
2023/01/27 08:24:56;;;;;;;1.45;1.35;;;5.20;99.90;;;;;;5032338;28;20028;-42
2023/01/27 08:27:22;;;;;;;1.90;1.40;;;5.20;99.90;;;;;;5032822;28;20057;-45
2023/01/27 08:29:48;;;;;;;1.50;1.40;;;5.20;99.90;;;;;;5031249;28;20025;-47
2023/01/27 08:32:13;;;;;;;1.40;0.98;;;5.30;99.90;;;;;;5029217;28;20029;-45
2023/01/27 08:34:40;;;;;;;2.65;1.25;;;5.30;99.90;;;;;;5022406;28;20018;-44
2023/01/27 08:37:06;;;;;;;2.85;1.23;;;5.20;99.90;;;;;;5012827;28;20026;-44
2023/01/27 08:39:32;;;;;;;1.23;1.10;;;5.10;99.90;;;;;;5014102;28;20855;-43
2023/01/27 08:41:59;;;;;;;3.75;0.98;;;5.00;99.90;;;;;;5032549;28;20053;-44
2023/01/27 08:44:27;;;;;;;1.40;1.30;;;5.00;99.90;;;;;;5031467;28;20112;-41
2023/01/27 08:46:53;;;;;;;3.58;1.08;;;5.10;99.90;;;;;;5028116;28;20037;-42
2023/01/27 08:49:19;;;;;;;3.05;1.13;;;5.00;99.90;;;;;;5032476;28;20417;-44
2023/01/27 08:51:45;;;;;;;6.90;1.40;;;5.00;99.90;;;;;;5031624;28;20529;-42
2023/01/27 08:54:11;;;;;;;1.08;1.00;;;5.00;99.90;;;;;;5027883;28;20106;-46
2023/01/27 08:56:37;;;;;;;3.67;2.65;;;5.10;99.90;;;;;;5029965;28;20021;-42
2023/01/27 08:59:02;;;;;;;4.03;0.90;;;5.20;99.90;;;;;;5016154;28;20080;-42
2023/01/27 09:01:28;;;;;;;0.88;0.88;;;5.20;99.90;;;;;;5031059;28;20021;-43
2023/01/27 09:03:54;;;;;;;1.52;0.90;;;5.30;99.90;;;;;;5031549;28;20018;-45
2023/01/27 09:06:20;;;;;;;1.95;0.95;;;5.30;99.90;;;;;;5034950;28;20474;-35
2023/01/27 09:09:07;;;;;;;2.63;1.02;;;5.40;99.90;;;;;;5032777;28;20516;-42
2023/01/27 09:11:38;;;;;;;2.37;1.27;;;5.40;99.90;;;;;;5024923;28;20127;-46
2023/01/27 09:14:04;;;;;;;2.25;0.90;;;5.40;99.90;;;;;;5036004;28;20025;-47
2023/01/27 09:16:29;;;;;;;0.52;0.52;;;5.50;99.90;;;;;;5023409;28;20026;-42
2023/01/27 09:18:56;;;;;;;2.28;0.77;;;5.40;99.90;;;;;;5036160;28;20401;-44
2023/01/27 09:21:22;;;;;;;1.63;0.68;;;5.50;99.90;;;;;;5027544;28;20025;-42
2023/01/27 09:23:48;;;;;;;4.60;1.10;;;5.50;99.90;;;;;;5036181;28;20026;-46
2023/01/27 09:26:14;;;;;;;1.30;0.50;;;5.60;99.90;;;;;;5036041;28;20022;-44
2023/01/27 09:28:40;;;;;;;0.80;0.80;;;5.50;99.90;;;;;;5034519;28;20033;-45
2023/01/27 09:31:08;;;;;;;4.68;0.90;;;5.50;99.90;;;;;;5027360;28;20030;-46
2023/01/27 09:33:34;;;;;;;;;;;5.60;99.90;;;;;;5016529;28;20026;-53
2023/01/27 09:36:10;;;;;;;2.42;0.57;;;5.60;99.90;;;;;;5016162;28;20000;-42
2023/01/27 09:38:45;;;;;;;5.00;0.82;;;5.70;99.90;;;;;;5022831;28;20473;-46
2023/01/27 09:41:38;;;;;;;4.18;1.70;;;5.70;99.90;;;;;;5035764;28;20022;-39
2023/01/27 09:44:26;;;;;;;3.85;1.35;;;5.80;99.90;;;;;;5017441;28;20096;-39
2023/01/27 09:46:54;;;;;;;8.00;1.00;;;5.80;99.90;;;;;;5016189;28;20378;-38
2023/01/27 09:49:32;;;;;;;2.80;0.90;;;5.80;99.90;;;;;;5015744;28;20394;-34
2023/01/27 09:52:12;;;;;;;1.52;0.50;;;6.00;99.90;;;;;;5015867;28;20021;-36
2023/01/27 09:54:53;;;;;;;6.50;1.00;;;6.10;99.90;;;;;;5015665;28;20386;-39
2023/01/27 09:57:41;;;;;;;0.70;0.70;;;6.10;99.90;;;;;;5025629;28;20112;-39
2023/01/27 10:00:24;;;;;;;1.90;0.90;;;6.00;99.90;;;;;;5033199;28;20048;-37
2023/01/27 10:03:05;;;;;;;1.17;0.80;;;6.00;99.90;;;;;;5034294;28;20036;-38
2023/01/27 10:05:48;;;;;;;2.35;0.50;;;6.10;99.90;;;;;;5035219;28;20501;-40
2023/01/27 10:08:22;;;;;;;1.25;0.70;;;6.20;99.90;;;;;;5028784;28;20064;-40
2023/01/27 10:11:06;;;;;;;2.30;0.70;;;6.20;99.90;;;;;;5034792;28;20018;-37
2023/01/27 10:13:41;;;;;;;1.02;0.70;;;6.10;99.90;;;;;;5034056;28;20029;-39
2023/01/27 10:16:39;;;;;;;0.80;0.80;;;6.00;99.90;;;;;;5023056;28;20025;-39
2023/01/27 10:19:44;;;;;;;2.10;0.93;;;5.90;99.90;;;;;;5015384;28;20504;-37
2023/01/27 10:22:15;;;;;;;1.98;0.80;;;6.10;99.90;;;;;;5014184;28;20502;-39
2023/01/27 10:24:52;;;;;;;3.78;1.00;;;6.00;99.90;;;;;;5015322;28;20402;-40
2023/01/27 10:27:23;;;;;;;0.82;0.82;;;6.10;99.90;;;;;;5015455;28;20029;-36
2023/01/27 10:30:13;;;;;;;1.17;0.65;;;6.20;99.90;;;;;;5023132;28;20018;-36
2023/01/27 10:33:08;;;;;;;0.80;0.80;;;6.20;99.90;;;;;;5020574;28;20026;-39
2023/01/27 10:35:48;;;;;;;2.58;0.93;;;6.30;99.90;;;;;;5015278;28;20502;-36
2023/01/27 10:38:44;;;;;;;1.42;0.75;;;6.40;99.90;;;;;;5014776;28;20034;-43
2023/01/27 10:41:42;;;;;;;3.33;1.20;;;6.40;99.90;;;;;;5015354;28;20470;-43
2023/01/27 10:44:45;;;;;;;1.20;1.05;;;6.40;99.90;;;;;;5034761;28;20441;-41
2023/01/27 10:47:33;;;;;;;0.90;0.90;;;6.30;99.90;;;;;;5031748;28;20505;-39
2023/01/27 10:50:18;;;;;;;2.65;0.60;;;6.30;99.90;;;;;;5026183;28;20163;-36
2023/01/27 10:53:24;;;;;;;2.42;0.80;;;6.20;99.90;;;;;;5020777;28;20030;-38
2023/01/27 10:56:09;;;;;;;3.33;1.00;;;6.20;99.90;;;;;;5028047;28;20045;-39
2023/01/27 10:59:04;;;;;;;2.70;1.08;;;6.20;99.90;;;;;;5032846;28;20593;-40
2023/01/27 11:01:50;;;;;;;1.73;1.00;;;6.30;99.90;;;;;;5027791;28;20492;-39
2023/01/27 11:04:28;;;;;;;1.20;1.10;;;6.40;99.90;;;;;;5027176;28;20029;-38
2023/01/27 11:06:54;;;;;;;2.45;1.20;;;6.40;99.90;;;;;;5015632;28;20036;-37
2023/01/27 11:09:32;;;;;;;1.85;0.70;;;6.40;99.90;;;;;;5020762;28;20497;-37
2023/01/27 11:12:08;;;;;;;;;;;6.30;99.90;;;;;;5026975;28;21540;-39
2023/01/27 11:14:49;;;;;;;2.33;1.75;;;6.40;99.90;;;;;;5033203;28;20365;-40
2023/01/27 11:17:27;;;;;;;0.98;0.88;;;6.30;99.90;;;;;;5029600;28;20043;-39
2023/01/27 11:20:05;;;;;;;2.47;2.10;;;6.30;99.90;;;;;;5031395;28;20508;-39
2023/01/27 11:22:39;;;;;;;2.35;1.20;;;6.40;99.90;;;;;;5028008;28;20363;-39
2023/01/27 11:25:13;;;;;;;5.68;1.10;;;6.40;99.90;;;;;;5031691;28;20485;-36
2023/01/27 11:28:13;;;;;;;2.47;1.40;;;6.50;99.90;;;;;;5029921;28;20567;-35
2023/01/27 11:30:59;;;;;;;1.98;1.30;;;6.40;99.90;;;;;;5029764;28;20112;-38
2023/01/27 11:33:44;;;;;;;1.80;1.30;;;6.40;99.90;;;;;;5024890;28;20034;-38
2023/01/27 11:36:10;;;;;;;4.25;1.30;;;6.40;99.90;;;;;;5028950;28;20034;-36
2023/01/27 11:38:35;;;;;;;1.35;1.25;;;6.30;99.90;;;;;;5028457;28;20036;-40
2023/01/27 11:41:01;;;;;;;4.78;1.98;;;6.20;99.90;;;;;;5019142;28;20021;-39
2023/01/27 11:43:28;;;;;;;3.50;1.77;;;6.20;99.90;;;;;;5026738;28;20025;-40
2023/01/27 11:46:02;;;;;;;2.55;1.65;;;6.20;99.90;;;;;;5029742;28;20036;-37
2023/01/27 11:48:40;;;;;;;1.08;1.05;;;6.20;99.90;;;;;;5033427;28;20445;-38
2023/01/27 11:51:23;;;;;;;2.78;1.55;;;6.30;99.90;;;;;;5015791;28;20108;-35
2023/01/27 11:54:14;;;;;;;2.10;1.60;;;6.30;99.90;;;;;;5027058;28;20037;-38
2023/01/27 11:56:42;;;;;;;1.63;1.17;;;6.30;99.90;;;;;;5024653;28;20029;-36
2023/01/27 11:59:16;;;;;;;1.42;1.30;;;6.30;99.90;;;;;;5026774;28;20025;-38
2023/01/27 12:01:48;;;;;;;3.35;1.27;;;6.30;99.90;;;;;;5030852;28;20474;-40
2023/01/27 12:04:38;;;;;;;2.70;1.33;;;6.30;99.90;;;;;;5026422;28;20449;-43
2023/01/27 12:07:17;;;;;;;1.60;1.38;;;6.30;99.90;;;;;;5013301;28;20041;-42
2023/01/27 12:09:43;;;;;;;2.95;1.45;;;6.20;99.90;;;;;;5023915;28;20505;-42
2023/01/27 12:12:18;;;;;;;2.60;1.40;;;6.10;99.90;;;;;;5027423;28;20103;-42
2023/01/27 12:14:48;;;;;;;2.28;1.08;;;6.10;99.90;;;;;;5033165;28;20381;-43
2023/01/27 12:17:26;;;;;;;5.28;1.70;;;6.00;99.90;;;;;;5029329;28;20049;-45
2023/01/27 12:19:56;;;;;;;3.97;1.60;;;5.90;99.90;;;;;;5030846;28;20025;-43
2023/01/27 12:22:36;;;;;;;1.95;1.33;;;6.00;99.90;;;;;;5026865;28;20037;-45
2023/01/27 12:25:05;;;;;;;1.48;1.38;;;5.90;99.90;;;;;;5013239;28;20111;-42
2023/01/27 12:27:45;;;;;;;1.92;1.40;;;5.90;99.90;;;;;;5020583;28;20040;-46
2023/01/27 12:30:23;;;;;;;2.00;1.23;;;6.00;99.90;;;;;;5029851;28;20108;-46
2023/01/27 12:32:49;;;;;;;2.00;1.80;;;6.10;99.90;;;;;;5023946;28;20021;-43
2023/01/27 12:35:33;;;;;;;1.42;1.17;;;6.10;99.90;;;;;;5029282;28;20080;-44
2023/01/27 12:38:15;;;;;;;2.90;1.23;;;6.10;99.90;;;;;;5032790;28;20033;-47
2023/01/27 12:40:44;;;;;;;1.30;1.20;;;6.20;99.90;;;;;;5029815;28;20025;-41
2023/01/27 12:43:12;;;;;;;1.50;1.40;;;6.30;99.90;;;;;;5031060;28;20490;-48
2023/01/27 12:45:38;;;;;;;3.38;1.75;;;6.40;99.90;;;;;;5031022;28;20057;-35
2023/01/27 12:48:13;;;;;;;4.60;1.63;;;6.50;99.90;;;;;;5031082;28;20026;-39
2023/01/27 12:50:41;;;;;;;2.45;1.10;;;6.60;99.90;;;;;;5030558;28;20029;-37
2023/01/27 12:53:16;;;;;;;4.57;1.75;;;6.70;99.90;;;;;;5027614;28;20465;-38
2023/01/27 12:55:48;;;;;;;2.10;1.30;;;6.70;99.90;;;;;;5012976;28;20474;-39
2023/01/27 12:58:34;;;;;;;2.20;1.65;;;6.70;99.90;;;;;;5012251;28;20093;-38
2023/01/27 13:01:23;;;;;;;1.67;1.58;;;6.70;99.90;;;;;;5031889;28;20486;-41
2023/01/27 13:03:53;;;;;;;2.20;1.38;;;6.60;99.90;;;;;;5025484;28;20083;-41
2023/01/27 13:06:23;;;;;;;1.92;1.23;;;6.50;99.90;;;;;;5027641;28;20068;-42
2023/01/27 13:09:26;;;;;;;3.85;1.33;;;6.40;99.90;;;;;;5025866;28;20060;-40
2023/01/27 13:11:55;;;;;;;4.00;1.40;;;6.40;99.90;;;;;;5029458;28;20069;-48
2023/01/27 13:14:22;;;;;;;4.95;1.20;;;6.40;99.90;;;;;;5025092;28;20536;-43
2023/01/27 13:16:53;;;;;;;5.60;1.52;;;6.50;99.90;;;;;;5030035;28;20030;-41
2023/01/27 13:19:21;;;;;;;1.58;1.20;;;6.50;99.90;;;;;;5014370;28;20037;-42
2023/01/27 13:21:52;;;;;;;2.67;1.33;;;6.50;99.90;;;;;;5030689;28;20465;-41
2023/01/27 13:24:35;;;;;;;6.00;1.58;;;6.50;99.90;;;;;;5030720;28;20032;-42
2023/01/27 13:27:04;;;;;;;2.75;1.17;;;6.50;99.90;;;;;;5030815;28;20385;-42
2023/01/27 13:29:34;;;;;;;1.70;0.88;;;6.50;99.90;;;;;;5025918;28;20470;-40
2023/01/27 13:32:25;;;;;;;3.60;1.10;;;6.40;99.90;;;;;;5027519;28;20022;-42
2023/01/27 13:34:56;;;;;;;1.00;0.93;;;6.40;99.90;;;;;;5029810;28;20462;-43
2023/01/27 13:37:34;;;;;;;2.45;0.88;;;6.30;99.90;;;;;;5023185;28;20029;-43
2023/01/27 13:40:29;;;;;;;1.27;1.17;;;6.30;99.90;;;;;;5026689;28;20032;-42
2023/01/27 13:43:18;;;;;;;1.42;1.25;;;6.20;99.90;;;;;;5021468;28;20067;-38
2023/01/27 13:46:11;;;;;;;1.55;1.00;;;6.20;99.90;;;;;;5030975;28;20068;-40
2023/01/27 13:48:49;;;;;;;1.52;1.35;;;6.10;99.90;;;;;;5026511;28;20048;-33
2023/01/27 13:51:18;;;;;;;1.60;1.48;;;6.20;99.90;;;;;;5027126;28;20371;-39
2023/01/27 13:53:46;;;;;;;2.72;1.15;;;6.20;99.90;;;;;;5033605;28;20481;-43